logo
Rechercher aéroport 
image banner adimage banner adimage banner ad
image banner ad

68CA - Lake California Air Park

Situé à Cottonwood, United States

ICAO - 68CA, IATA -

Données fournies par Airmate  

Information générale

Coordonnées: N40°21'40" W122°12'57"
Élévation : 615 feet MSL.
Variation magnétique : 17° East
Voir autres Aéroports à California

Données opérationnelles

Special qualification required
Heure actuelle UTC:
Heure actuelle locale:
Météo à : KRDD - Redding Muni ( 18 km )
METAR: KRDD 050053Z 00000KT 10SM BR OVC018 09/07 A3003 RMK AO2 SLP168 T00890067
TAF: KRDD 060104Z 0601/0624 16003KT P6SM SCT026 BKN035 OVC060 TEMPO 0601/0604 -SHRA BKN026 FM060400 00000KT P6SM OVC025 TEMPO 0604/0608 -SHRA OVC015 FM061800 VRB04KT P6SM SKC
Voir NOTAMs / SUP AIP / TFR affectant cet aéroport [VIEW]
Fréquences de communication: [VIEW]

Pistes:

Identifiant RWYQFULongueur (ft)Largeur (ft)SurfaceLDA (ft)
14300075ASPH
32300075ASPH

Coordonnées de l'aéroport

Adresse: Cottonwood United States

Vue satellite de 68CA